Wallingford, United Kingdom
Current Conditions -  °F | °C
As of 6:50 PM on Thursday 23 Oct 2014 (Local Time) from EGUB Reporting Station
Broken Clouds Broken Clouds  
Wind Chill: 59°   Ceiling: 1800
Heat Index: 59°   Visibility: 6mi
Dew Point: 55°   Wind: 9mph
Humidity: 88%   Direction: 150°SSE
Pressure: 30"   Gusts: NA
Location:  51.6°N, 1.12°W
Report Text: EGUB 231750Z 15008KT 9999 FEW014 BKN018 BKN050 15/13 Q1016 WHT TEMPO SCT014 GRN
Loading
Personal Weather Stations






























Interactive Weather Map
Tropical Storm Tracking
New forecast layout! Learn more

10-Day Weather Forecast

Advertisements
Track Severe Weather on mobile